createdAt,value
2019-02-16T00:00:20.342Z,149.63
2019-02-16T00:04:24.680Z,152.13
2019-02-16T00:08:27.469Z,208.50
2019-02-16T00:12:30.244Z,185.70
2019-02-16T00:16:33.122Z,180.57
2019-02-16T00:20:35.843Z,148.80
2019-02-16T00:24:39.045Z,172.07
2019-02-16T00:28:41.653Z,130.17
2019-02-16T00:32:44.355Z,188.93
2019-02-16T00:36:47.241Z,207.67
2019-02-16T00:40:50.017Z,201.73
2019-02-16T00:44:52.402Z,126.53
2019-02-16T00:48:55.280Z,177.37
2019-02-16T00:52:57.652Z,210.37
2019-02-16T00:57:00.101Z,190.10
2019-02-16T01:01:02.975Z,257.13
2019-02-16T01:05:06.211Z,166.40
2019-02-16T01:09:08.674Z,146.53
2019-02-16T01:13:11.211Z,189.67
2019-02-16T01:17:13.563Z,202.67
2019-02-16T01:21:22.558Z,174.73
2019-02-16T01:25:20.086Z,241.90
2019-02-16T01:29:22.578Z,224.93
2019-02-16T01:33:24.936Z,209.63
2019-02-16T01:37:27.590Z,233.27
2019-02-16T01:41:30.287Z,196.23
2019-02-16T01:45:33.164Z,209.20
2019-02-16T01:49:35.982Z,150.97
2019-02-16T01:53:38.830Z,144.03
2019-02-16T01:57:41.286Z,184.73
2019-02-16T02:01:44.049Z,140.00
2019-02-16T02:05:46.424Z,126.13
2019-02-16T02:09:49.210Z,193.07
2019-02-16T02:13:51.809Z,173.33
2019-02-16T02:17:54.495Z,135.60
2019-02-16T02:21:56.852Z,88.87
2019-02-16T02:25:59.582Z,102.10
2019-02-16T02:30:02.296Z,70.57
2019-02-16T02:34:04.816Z,54.10
2019-02-16T02:38:07.194Z,117.97
2019-02-16T02:42:09.822Z,72.83
2019-02-16T02:46:12.561Z,53.03
2019-02-16T02:50:15.659Z,39.07
2019-02-16T02:54:18.119Z,26.57
2019-02-16T02:58:20.567Z,28.20
2019-02-16T03:02:22.932Z,26.53
2019-02-16T03:06:25.658Z,24.43
2019-02-16T03:10:28.009Z,13.13
2019-02-16T03:14:30.509Z,15.43
2019-02-16T03:18:32.914Z,19.50
2019-02-16T03:23:31.215Z,24.57
2019-02-16T03:28:26.337Z,17.43
2019-02-16T03:33:16.100Z,21.37
2019-02-16T03:37:55.994Z,18.40
2019-02-16T03:41:58.942Z,22.30
2019-02-16T03:46:01.713Z,16.10
2019-02-16T03:50:06.166Z,17.73
2019-02-16T03:54:09.137Z,18.43
2019-02-16T03:58:12.907Z,22.37
2019-02-16T04:02:15.543Z,24.10
2019-02-16T04:06:18.221Z,15.33
2019-02-16T04:10:20.709Z,19.77
2019-02-16T04:14:23.510Z,17.90
2019-02-16T04:18:26.344Z,23.57
2019-02-16T04:22:29.181Z,18.63
2019-02-16T04:26:31.906Z,23.03
2019-02-16T04:30:34.758Z,21.17
2019-02-16T04:34:38.465Z,21.87
2019-02-16T04:38:41.199Z,25.53
2019-02-16T04:42:43.795Z,25.20
2019-02-16T04:46:46.465Z,22.47
2019-02-16T04:50:49.067Z,26.40
2019-02-16T04:54:52.600Z,22.80
2019-02-16T04:58:55.331Z,21.63
2019-02-16T05:02:58.000Z,22.27
2019-02-16T05:07:00.829Z,17.30
2019-02-16T05:11:03.464Z,22.03
2019-02-16T05:15:06.022Z,27.07
2019-02-16T05:19:08.732Z,18.60
2019-02-16T05:23:11.435Z,13.23
2019-02-16T05:27:14.202Z,15.23
2019-02-16T05:31:16.899Z,18.93
2019-02-16T05:35:19.622Z,36.87
2019-02-16T05:39:22.187Z,52.33
2019-02-16T05:43:24.847Z,53.93
2019-02-16T05:47:27.502Z,60.20
2019-02-16T05:51:30.954Z,60.37
2019-02-16T05:55:33.954Z,109.27
2019-02-16T05:59:36.770Z,44.13
2019-02-16T06:03:39.794Z,15.67
2019-02-16T06:07:42.824Z,14.90
2019-02-16T06:11:45.387Z,16.17
2019-02-16T06:15:48.352Z,24.10
2019-02-16T06:19:50.768Z,13.83
2019-02-16T06:23:53.380Z,15.67
2019-02-16T06:27:55.911Z,11.47
2019-02-16T06:31:58.578Z,12.93
2019-02-16T06:36:05.796Z,10.50
2019-02-16T06:40:08.560Z,19.57
2019-02-16T06:44:10.913Z,15.67
2019-02-16T06:48:13.341Z,10.63
2019-02-16T06:52:15.678Z,12.03
2019-02-16T06:56:27.541Z,13.33
2019-02-16T07:00:31.115Z,16.10
2019-02-16T07:04:33.531Z,11.57
2019-02-16T07:08:35.897Z,10.33
2019-02-16T07:12:38.387Z,13.87
2019-02-16T07:16:56.087Z,10.13
2019-02-16T07:20:58.531Z,11.33
2019-02-16T07:25:00.902Z,15.80
2019-02-16T07:29:03.346Z,10.80
2019-02-16T07:33:05.808Z,12.97
2019-02-16T07:37:08.447Z,10.63
2019-02-16T07:41:10.920Z,11.83
2019-02-16T07:45:27.375Z,14.03
2019-02-16T07:49:37.937Z,10.90
2019-02-16T07:53:59.101Z,14.50
2019-02-16T07:58:34.262Z,11.13
2019-02-16T08:03:01.865Z,11.07
2019-02-16T08:07:13.696Z,9.67
2019-02-16T08:11:25.773Z,5.80
2019-02-16T08:15:53.057Z,10.60
2019-02-16T08:20:13.038Z,14.40
2019-02-16T08:24:38.701Z,14.90
2019-02-16T08:29:06.081Z,19.87
2019-02-16T08:33:15.938Z,12.87
2019-02-16T08:37:34.401Z,8.70
2019-02-16T08:41:50.822Z,11.83
2019-02-16T08:46:12.866Z,15.70
2019-02-16T08:50:33.146Z,15.33
2019-02-16T08:55:00.332Z,15.03
2019-02-16T08:59:24.508Z,9.80
2019-02-16T09:03:59.602Z,12.50
2019-02-16T09:08:20.668Z,12.13
2019-02-16T09:12:51.363Z,12.23
2019-02-16T09:17:13.309Z,9.23
2019-02-16T09:21:23.006Z,8.70
2019-02-16T09:25:49.928Z,11.27
2019-02-16T09:30:14.779Z,9.37
2019-02-16T09:34:23.961Z,10.13
2019-02-16T09:38:54.502Z,7.20
2019-02-16T09:43:08.041Z,12.83
2019-02-16T09:47:19.203Z,15.50
2019-02-16T09:51:40.316Z,9.73
2019-02-16T09:56:00.456Z,7.63
2019-02-16T10:00:10.730Z,9.80
2019-02-16T10:04:31.992Z,17.57
2019-02-16T10:08:53.347Z,9.80
2019-02-16T10:13:14.730Z,8.53
2019-02-16T10:17:42.427Z,8.20
2019-02-16T10:22:16.135Z,10.37
2019-02-16T10:26:37.270Z,9.73
2019-02-16T10:30:47.971Z,9.40
2019-02-16T10:35:09.196Z,9.23
2019-02-16T10:39:19.790Z,5.53
2019-02-16T10:43:40.890Z,12.20
2019-02-16T10:48:14.141Z,10.17
2019-02-16T10:52:33.616Z,9.03
2019-02-16T10:57:04.196Z,6.07
2019-02-16T11:01:25.469Z,7.50
2019-02-16T11:05:53.061Z,7.63
2019-02-16T11:10:19.345Z,9.93
2019-02-16T11:14:46.416Z,12.57
2019-02-16T11:18:55.919Z,6.63
2019-02-16T11:23:17.020Z,7.23
2019-02-16T11:27:44.632Z,9.23
2019-02-16T11:32:08.889Z,8.17
2019-02-16T11:36:35.300Z,8.30
2019-02-16T11:40:59.103Z,10.83
2019-02-16T11:45:20.166Z,10.53
2019-02-16T11:49:33.272Z,7.53
2019-02-16T11:53:52.990Z,7.90
2019-02-16T11:58:16.222Z,8.97
2019-02-16T12:02:52.964Z,7.87
2019-02-16T12:07:14.247Z,10.83
2019-02-16T12:11:53.939Z,9.77
2019-02-16T12:16:15.100Z,4.70
2019-02-16T12:20:39.000Z,6.63
2019-02-16T12:25:04.867Z,10.20
2019-02-16T12:29:30.523Z,9.07
2019-02-16T12:33:58.021Z,7.73
2019-02-16T12:38:10.012Z,6.77
2019-02-16T12:42:43.425Z,9.33
2019-02-16T12:47:16.830Z,6.17
2019-02-16T12:51:40.752Z,6.53
2019-02-16T12:55:59.192Z,7.37
2019-02-16T13:00:14.631Z,7.17
2019-02-16T13:04:38.746Z,6.40
2019-02-16T13:08:48.765Z,9.77
2019-02-16T13:12:58.009Z,8.20
2019-02-16T13:17:18.138Z,8.43
2019-02-16T13:21:57.660Z,10.90
2019-02-16T13:26:16.820Z,4.53
2019-02-16T13:30:36.766Z,7.13
2019-02-16T13:34:52.166Z,7.67
2019-02-16T13:39:13.258Z,10.17
2019-02-16T13:43:33.690Z,6.23
2019-02-16T13:47:54.804Z,9.27
2019-02-16T13:52:14.672Z,5.63
2019-02-16T13:56:28.064Z,5.67
2019-02-16T14:00:58.295Z,7.37
2019-02-16T14:05:22.474Z,7.23
2019-02-16T14:09:42.360Z,7.73
2019-02-16T14:13:56.064Z,8.47
2019-02-16T14:17:58.496Z,11.93
2019-02-16T14:22:00.824Z,10.07
2019-02-16T14:26:03.433Z,9.83
2019-02-16T14:30:06.453Z,5.53
2019-02-16T14:34:09.489Z,11.17
2019-02-16T14:38:35.398Z,7.83
2019-02-16T14:42:37.884Z,11.20
2019-02-16T14:46:40.220Z,8.83
2019-02-16T14:50:42.674Z,10.13
2019-02-16T14:54:45.128Z,11.87
2019-02-16T14:58:47.538Z,10.77
2019-02-16T15:02:49.880Z,11.10
2019-02-16T15:06:52.338Z,9.13
2019-02-16T15:10:54.739Z,7.50
2019-02-16T15:14:57.187Z,12.13
2019-02-16T15:18:59.776Z,12.00
2019-02-16T15:23:02.411Z,10.07
2019-02-16T15:27:04.849Z,12.07
2019-02-16T15:31:07.364Z,16.30
2019-02-16T15:35:10.697Z,15.03
2019-02-16T15:39:13.155Z,12.93
2019-02-16T15:43:15.590Z,15.00
2019-02-16T15:47:18.408Z,12.67
2019-02-16T15:51:20.770Z,9.57
2019-02-16T15:55:23.163Z,9.23
2019-02-16T15:59:25.502Z,8.47
2019-02-16T16:03:29.064Z,8.07
2019-02-16T16:07:31.797Z,9.50
2019-02-16T16:11:45.239Z,11.33
2019-02-16T16:16:01.323Z,9.17
2019-02-16T16:20:25.396Z,10.50
2019-02-16T16:24:39.684Z,12.63
2019-02-16T16:29:00.794Z,9.70
2019-02-16T16:33:31.425Z,10.43
2019-02-16T16:37:59.204Z,12.33
2019-02-16T16:42:19.154Z,8.67
2019-02-16T16:46:39.292Z,11.77
2019-02-16T16:50:50.015Z,11.80
2019-02-16T16:55:14.458Z,15.40
2019-02-16T16:59:35.536Z,9.63
2019-02-16T17:04:12.544Z,11.57
2019-02-16T17:08:29.153Z,14.53
2019-02-16T17:12:49.232Z,13.57
2019-02-16T17:17:12.711Z,12.13
2019-02-16T17:21:35.870Z,13.47
2019-02-16T17:26:16.346Z,10.07
2019-02-16T17:30:31.745Z,11.47
2019-02-16T17:34:52.814Z,14.30
2019-02-16T17:39:12.879Z,13.93
2019-02-16T17:43:33.649Z,12.43
2019-02-16T17:48:07.895Z,13.23
2019-02-16T17:52:27.528Z,13.33
2019-02-16T17:56:46.796Z,8.27
2019-02-16T18:01:08.756Z,13.57
2019-02-16T18:05:34.587Z,11.47
2019-02-16T18:09:58.794Z,15.00
2019-02-16T18:14:16.968Z,13.17
2019-02-16T18:18:51.739Z,13.33
2019-02-16T18:23:09.799Z,18.50
2019-02-16T18:27:36.912Z,14.27
2019-02-16T18:32:13.712Z,11.27
2019-02-16T18:36:28.704Z,15.83
2019-02-16T18:40:42.611Z,10.17
2019-02-16T18:45:06.500Z,11.93
2019-02-16T18:49:24.414Z,15.63
2019-02-16T18:53:58.325Z,12.23
2019-02-16T18:58:12.048Z,19.90
2019-02-16T19:02:32.299Z,18.90
2019-02-16T19:06:45.214Z,9.60
2019-02-16T19:11:09.465Z,15.70
2019-02-16T19:15:48.940Z,15.10
2019-02-16T19:20:16.611Z,13.80
2019-02-16T19:24:27.953Z,11.83
2019-02-16T19:28:50.883Z,14.93
2019-02-16T19:33:05.069Z,12.03
2019-02-16T19:37:23.143Z,14.10
2019-02-16T19:41:43.556Z,13.27
2019-02-16T19:46:20.465Z,12.43
2019-02-16T19:50:30.683Z,14.77
2019-02-16T19:54:44.213Z,15.20
2019-02-16T19:59:08.712Z,11.60
2019-02-16T20:03:32.979Z,9.33
2019-02-16T20:07:52.962Z,12.73
2019-02-16T20:12:05.274Z,12.60
2019-02-16T20:16:45.538Z,17.70
2019-02-16T20:21:07.270Z,12.87
2019-02-16T20:25:27.875Z,10.67
2019-02-16T20:29:48.032Z,10.30
2019-02-16T20:34:15.686Z,9.80
2019-02-16T20:38:36.764Z,12.80
2019-02-16T20:42:57.924Z,14.47
2019-02-16T20:47:09.407Z,14.77
2019-02-16T20:51:18.541Z,10.40
2019-02-16T20:55:55.071Z,10.33
2019-02-16T21:00:22.673Z,7.97
2019-02-16T21:04:42.952Z,5.60
2019-02-16T21:09:16.239Z,11.03
2019-02-16T21:13:33.170Z,11.97
2019-02-16T21:17:57.575Z,10.23
2019-02-16T21:22:21.534Z,14.87
2019-02-16T21:26:46.578Z,9.07
2019-02-16T21:30:58.844Z,11.73
2019-02-16T21:35:09.822Z,6.07
2019-02-16T21:39:20.217Z,9.30
2019-02-16T21:43:41.640Z,10.43
2019-02-16T21:48:05.788Z,5.70
2019-02-16T21:52:27.047Z,6.13
2019-02-16T21:56:48.778Z,10.30
2019-02-16T22:01:16.275Z,9.93
2019-02-16T22:05:36.600Z,8.17
2019-02-16T22:09:58.199Z,5.43
2019-02-16T22:14:00.541Z,8.60
2019-02-16T22:18:02.984Z,7.23
2019-02-16T22:22:05.314Z,9.27
2019-02-16T22:26:07.750Z,9.80
2019-02-16T22:30:11.767Z,6.27
2019-02-16T22:34:14.170Z,6.70
2019-02-16T22:38:16.481Z,3.17
2019-02-16T22:42:19.128Z,4.50
2019-02-16T22:46:21.461Z,7.90
2019-02-16T22:50:23.897Z,5.03
2019-02-16T22:54:27.542Z,3.23
2019-02-16T22:58:29.928Z,5.63
2019-02-16T23:02:32.241Z,3.67
2019-02-16T23:06:34.650Z,2.47
2019-02-16T23:10:37.088Z,2.90
2019-02-16T23:14:39.447Z,3.67
2019-02-16T23:18:41.812Z,9.10
2019-02-16T23:22:44.241Z,2.67
2019-02-16T23:26:46.598Z,5.10
2019-02-16T23:30:50.573Z,5.07
2019-02-16T23:34:52.956Z,1.87
2019-02-16T23:38:55.556Z,5.53
2019-02-16T23:42:57.861Z,4.60
2019-02-16T23:47:00.307Z,5.37
2019-02-16T23:51:02.850Z,3.17
2019-02-16T23:55:05.728Z,5.37
2019-02-16T23:59:08.065Z,5.27
